createdAt,value
2017-11-09T19:46:24.131Z,14.9
2017-11-09T19:47:26.584Z,16.7
2017-11-09T19:49:31.426Z,15.5
2017-11-09T19:51:12.768Z,16.1
2017-11-09T19:54:29.881Z,16.1
2017-11-09T19:55:31.742Z,15.9
2017-11-09T19:57:23.910Z,16.4
2017-11-09T19:58:25.777Z,16.3
2017-11-09T19:59:27.887Z,15.5
2017-11-09T20:00:29.756Z,15.3
2017-11-09T20:03:14.573Z,16.4
2017-11-09T20:04:58.377Z,15.8
2017-11-09T20:13:53.302Z,16.4
2017-11-09T20:16:08.808Z,14.9
2017-11-09T20:17:10.664Z,15.5
2017-11-09T20:19:13.965Z,16.0
2017-11-09T20:20:15.828Z,15.8
2017-11-09T20:22:19.121Z,15.8
2017-11-09T20:23:20.989Z,16.3
2017-11-09T20:26:02.647Z,15.8
2017-11-09T20:27:04.520Z,16.0
2017-11-09T20:29:27.251Z,15.6
2017-11-09T20:30:53.840Z,14.7
2017-11-09T20:31:55.719Z,15.1
2017-11-09T20:33:47.885Z,14.9
2017-11-09T20:34:49.754Z,15.6
2017-11-09T20:36:59.344Z,16.0
2017-11-09T20:38:01.210Z,15.4
2017-11-09T20:39:18.581Z,15.7
2017-11-09T20:40:20.445Z,16.3
2017-11-09T20:42:23.738Z,15.1
2017-11-09T20:43:25.605Z,14.7
2017-11-09T20:45:28.908Z,16.3
2017-11-09T20:46:30.773Z,15.1
2017-11-09T20:48:22.940Z,15.1
2017-11-09T20:49:24.812Z,15.4
2017-11-09T20:51:28.100Z,15.4
2017-11-09T20:52:29.971Z,15.1
2017-11-09T20:54:33.267Z,14.9
2017-11-09T20:55:35.136Z,14.9
2017-11-09T20:58:28.568Z,0.0
2017-11-09T21:02:55.167Z,12.80
2017-11-09T21:03:55.384Z,14.50
2017-11-09T21:07:47.701Z,13.90
2017-11-09T21:08:47.898Z,15.10
2017-11-09T21:10:41.413Z,14.50
2017-11-09T21:11:41.646Z,14.80
2017-11-09T21:13:35.094Z,15.50
2017-11-09T21:14:35.304Z,15.10
2017-11-09T21:16:28.770Z,14.60
2017-11-09T21:17:28.974Z,15.10
2017-11-09T21:19:22.450Z,13.80
2017-11-09T21:20:22.666Z,14.30
2017-11-09T21:22:27.156Z,14.00
2017-11-09T21:23:27.392Z,15.00
2017-11-09T21:24:27.621Z,14.80
2017-11-09T21:25:27.854Z,14.10
2017-11-09T21:26:28.092Z,14.70
2017-11-09T21:27:28.329Z,15.40
2017-11-09T21:28:28.568Z,13.80
2017-11-09T21:29:28.807Z,14.40
2017-11-09T21:30:29.346Z,14.50
2017-11-09T21:31:29.280Z,14.80
2017-11-09T21:32:29.524Z,14.30
2017-11-09T21:33:29.758Z,14.10
2017-11-09T21:34:30.009Z,14.40
2017-11-09T21:35:30.230Z,15.30
2017-11-09T21:36:30.475Z,15.00
2017-11-09T21:37:30.700Z,13.60
2017-11-09T21:38:30.955Z,13.80
2017-11-09T21:39:31.183Z,14.40
2017-11-09T21:40:31.426Z,13.80
2017-11-09T21:41:31.660Z,14.50
2017-11-09T21:42:31.912Z,14.20
2017-11-09T21:43:32.142Z,14.40
2017-11-09T21:44:32.376Z,13.90
2017-11-09T21:45:32.613Z,14.00
2017-11-09T21:46:32.853Z,13.90
2017-11-09T21:47:33.091Z,13.80
2017-11-09T21:48:33.332Z,16.30
2017-11-09T21:49:33.557Z,14.80
2017-11-09T21:50:33.826Z,15.90
2017-11-09T21:51:34.042Z,16.70
2017-11-09T21:52:34.285Z,17.80
2017-11-09T21:53:34.540Z,16.20
2017-11-09T21:54:34.755Z,17.40
2017-11-09T21:55:34.995Z,17.70
2017-11-09T21:56:35.236Z,18.70
2017-11-09T21:57:35.467Z,17.40
2017-11-09T21:58:35.710Z,19.50
2017-11-09T21:59:35.947Z,18.60
2017-11-09T22:00:36.189Z,18.40
2017-11-09T22:01:36.415Z,17.30
2017-11-09T22:02:36.664Z,18.10
2017-11-09T22:03:36.891Z,18.00
2017-11-09T22:04:37.141Z,18.30
2017-11-09T22:05:37.381Z,18.60
2017-11-09T22:06:37.612Z,18.50
2017-11-09T22:07:37.859Z,18.70
2017-11-09T22:08:38.089Z,18.20
2017-11-09T22:09:38.326Z,18.90
2017-11-09T22:10:38.568Z,18.90
2017-11-09T22:11:38.810Z,18.40
2017-11-09T22:12:39.039Z,18.80
2017-11-09T22:13:39.283Z,18.30
2017-11-09T22:14:39.517Z,19.30
2017-11-09T22:15:39.762Z,19.20
2017-11-09T22:16:39.993Z,18.70
2017-11-09T22:17:40.236Z,18.50
2017-11-09T22:18:40.469Z,19.10
2017-11-09T22:19:40.713Z,18.70
2017-11-09T22:20:40.943Z,19.20
2017-11-09T22:21:41.179Z,18.70
2017-11-09T22:22:41.420Z,18.70
2017-11-09T22:23:41.662Z,19.00
2017-11-09T22:24:41.895Z,17.40
2017-11-09T22:25:42.140Z,17.70
2017-11-09T22:26:42.371Z,18.60
2017-11-09T22:27:42.613Z,18.50
2017-11-09T22:28:42.848Z,18.70
2017-11-09T22:29:43.085Z,18.40
2017-11-09T22:30:43.335Z,17.80
2017-11-09T22:31:43.567Z,18.40
2017-11-09T22:32:43.798Z,19.40
2017-11-09T22:33:44.034Z,17.60
2017-11-09T22:34:44.282Z,18.00
2017-11-09T22:35:44.519Z,17.70
2017-11-09T22:36:44.749Z,17.10
2017-11-09T22:37:45.012Z,17.10
2017-11-09T22:38:45.226Z,18.20
2017-11-09T22:39:45.466Z,18.00
2017-11-09T22:40:45.708Z,17.20
2017-11-09T22:41:45.940Z,17.30
2017-11-09T22:42:46.189Z,18.60
2017-11-09T22:43:46.415Z,18.00
2017-11-09T22:44:46.658Z,18.10
2017-11-09T22:45:46.889Z,16.90
2017-11-09T22:46:47.132Z,16.40
2017-11-09T22:47:47.372Z,17.30
2017-11-09T22:48:47.604Z,17.80
2017-11-09T22:49:47.842Z,17.30
2017-11-09T22:50:48.085Z,17.60
2017-11-09T22:51:48.326Z,17.70
2017-11-09T22:52:48.556Z,17.80
2017-11-09T22:53:48.795Z,18.00
2017-11-09T22:54:49.042Z,17.60
2017-11-09T22:55:49.277Z,17.50
2017-11-09T22:56:49.507Z,17.60
2017-11-09T22:57:49.741Z,17.10
2017-11-09T22:58:49.989Z,17.00
2017-11-09T22:59:50.238Z,16.70
2017-11-09T23:00:50.458Z,16.40
2017-11-09T23:01:50.696Z,17.30
2017-11-09T23:02:50.940Z,16.30
2017-11-09T23:03:51.174Z,16.90
2017-11-09T23:04:51.410Z,17.00
2017-11-09T23:05:51.658Z,16.30
2017-11-09T23:06:51.896Z,16.70
2017-11-09T23:07:52.123Z,15.80
2017-11-09T23:08:52.377Z,16.20
2017-11-09T23:09:52.600Z,16.10
2017-11-09T23:10:52.841Z,16.40
2017-11-09T23:11:53.074Z,16.90
2017-11-09T23:12:53.316Z,15.70
2017-11-09T23:13:53.547Z,16.90
2017-11-09T23:14:53.792Z,16.10
2017-11-09T23:15:54.025Z,15.30
2017-11-09T23:16:54.269Z,16.60
2017-11-09T23:17:54.507Z,16.90
2017-11-09T23:18:54.737Z,16.90
2017-11-09T23:19:54.982Z,14.70
2017-11-09T23:20:55.206Z,16.00
2017-11-09T23:21:55.459Z,15.20
2017-11-09T23:22:55.690Z,15.20
2017-11-09T23:23:55.935Z,16.10
2017-11-09T23:24:56.160Z,15.20
2017-11-09T23:25:56.401Z,15.20
2017-11-09T23:26:56.641Z,15.70
2017-11-09T23:27:56.889Z,14.90
2017-11-09T23:28:57.116Z,15.10
2017-11-09T23:29:57.359Z,15.50
2017-11-09T23:30:57.609Z,15.60
2017-11-09T23:31:57.835Z,15.60
2017-11-09T23:32:58.061Z,14.60
2017-11-09T23:33:58.305Z,15.40
2017-11-09T23:34:58.549Z,15.60
2017-11-09T23:35:58.793Z,15.30
2017-11-09T23:36:59.014Z,14.60
2017-11-09T23:37:59.255Z,15.30
2017-11-09T23:38:59.502Z,14.70
2017-11-09T23:39:59.728Z,15.90
2017-11-09T23:40:59.968Z,15.00
2017-11-09T23:42:00.207Z,14.70
2017-11-09T23:43:00.451Z,14.50
2017-11-09T23:44:00.689Z,14.80
2017-11-09T23:45:00.919Z,14.20
2017-11-09T23:46:01.154Z,15.00
2017-11-09T23:47:01.398Z,15.00
2017-11-09T23:48:01.640Z,14.30
2017-11-09T23:49:01.866Z,14.70
2017-11-09T23:50:02.108Z,14.40
2017-11-09T23:51:02.346Z,14.30
2017-11-09T23:52:02.586Z,12.60
2017-11-09T23:53:02.821Z,14.20
2017-11-09T23:54:03.059Z,14.20
2017-11-09T23:55:03.303Z,13.70
2017-11-09T23:56:03.544Z,13.20
2017-11-09T23:57:03.775Z,14.10
2017-11-09T23:58:04.017Z,13.40
2017-11-09T23:59:04.248Z,13.40
